»·PEaware :: WAT292 KSAN-KLAS

WAT292 :: KSAN-KLAS

FLIGHT INFORMATION

Flight Status: Arrived
Operator: Unknown
More flights by this operator :: More flights under this callsign
Pilot: Dan C. (28231)
Aircraft: Unknown
(E35L)
More flights by this aircraft type
Origin: KSAN San Diego Intl-Lindbergh
United States
Destination: KLAS McCarran Intl
United States
More flights between these airports :: More routes between these airports
Route: PADRZ2 CHKNN DCT SEBBY DCT YELAH DCT MISEN KEPEC6
File this flight plan on PilotEdge
Remarks:
Altitude:
(Current/Filed)
35,000ft
Speed:
(Current/Filed)
450kts
Departed: 20-Jul-20 03:31 PM
Arrived: 20-Jul-20 04:19 PM
Distance/Time
Traveled:
224nm/0:47
Distance/Time
To Go:
Arrived

Flight Plot

Page will automatically refresh every two minutes.


Map Options




Map Legend


Flown Route
Filed Route
Departure Airport
Arrival Airport
Navaid (VOR, NDB)
Fix

Horizontal Profiles

Position Reports

Time Latitude Longitude Heading Altitude Ground
Speed
20-Jul-20 14:36 32.732451 -117.176409 193 24ft 0kts
20-Jul-20 14:37 32.732451 -117.176409 193 24ft 0kts
20-Jul-20 14:38 32.732451 -117.176409 193 24ft 0kts
20-Jul-20 14:39 32.732451 -117.176409 193 24ft 0kts
20-Jul-20 14:40 32.732451 -117.176409 193 24ft 0kts
20-Jul-20 14:41 32.732451 -117.176409 193 24ft 0kts
20-Jul-20 14:42 32.732451 -117.176409 193 24ft 0kts
20-Jul-20 14:43 32.732451 -117.176409 193 24ft 0kts
20-Jul-20 14:44 32.732451 -117.176409 193 24ft 0kts
20-Jul-20 14:45 32.732451 -117.176409 193 24ft 0kts
20-Jul-20 14:46 32.732451 -117.176409 193 24ft 0kts
20-Jul-20 14:47 32.732451 -117.176409 193 24ft 0kts
20-Jul-20 14:48 32.732451 -117.176409 193 24ft 0kts
20-Jul-20 14:49 32.732451 -117.176409 193 24ft 0kts
20-Jul-20 14:50 32.732451 -117.176409 193 24ft 0kts
20-Jul-20 14:51 32.732451 -117.176409 193 24ft 0kts
20-Jul-20 14:52 32.732451 -117.176409 193 24ft 0kts
20-Jul-20 14:52 32.732451 -117.176409 193 24ft 0kts
20-Jul-20 14:54 32.732451 -117.176409 193 24ft 0kts
20-Jul-20 14:54 32.732451 -117.176409 193 24ft 0kts
20-Jul-20 14:55 32.732451 -117.176409 193 24ft 0kts
20-Jul-20 14:56 32.732451 -117.176409 193 24ft 0kts
20-Jul-20 14:57 32.732451 -117.176409 193 24ft 0kts
20-Jul-20 14:58 32.732451 -117.176409 193 24ft 0kts
20-Jul-20 14:59 32.732451 -117.176409 193 24ft 0kts
20-Jul-20 15:00 32.732451 -117.176409 193 24ft 0kts
20-Jul-20 15:01 32.732451 -117.176409 193 24ft 0kts
20-Jul-20 15:02 32.732451 -117.176409 193 24ft 0kts
20-Jul-20 15:03 32.732451 -117.176409 193 24ft 0kts
20-Jul-20 15:04 32.732451 -117.176409 193 24ft 0kts
20-Jul-20 15:05 32.732451 -117.176409 193 24ft 0kts
20-Jul-20 15:06 32.732451 -117.176409 193 24ft 0kts
20-Jul-20 15:07 32.732451 -117.176409 193 24ft 0kts
20-Jul-20 15:08 32.732451 -117.176409 193 24ft 0kts
20-Jul-20 15:09 32.732451 -117.176409 193 24ft 0kts
20-Jul-20 15:10 32.732451 -117.176409 193 24ft 0kts
20-Jul-20 15:11 32.732451 -117.176409 193 24ft 0kts
20-Jul-20 15:12 32.732451 -117.176409 193 24ft 0kts
20-Jul-20 15:13 32.732451 -117.176409 193 24ft 0kts
20-Jul-20 15:14 32.732451 -117.176409 193 24ft 0kts
20-Jul-20 15:15 32.732451 -117.176409 193 24ft 0kts
20-Jul-20 15:16 32.732451 -117.176409 193 24ft 0kts
20-Jul-20 15:17 32.732451 -117.176409 193 24ft 0kts
20-Jul-20 15:18 32.732451 -117.176409 193 24ft 0kts
20-Jul-20 15:19 32.732451 -117.176409 193 24ft 0kts
20-Jul-20 15:20 32.732451 -117.176409 193 24ft 0kts
20-Jul-20 15:21 32.732451 -117.176409 193 24ft 0kts
20-Jul-20 15:22 32.732451 -117.176409 194 24ft 0kts
20-Jul-20 15:23 32.732451 -117.176409 194 24ft 0kts
20-Jul-20 15:24 32.732451 -117.176409 194 24ft 0kts
20-Jul-20 15:25 32.732451 -117.176409 194 24ft 0kts
20-Jul-20 15:26 32.732449 -117.176409 193 24ft 0kts
20-Jul-20 15:27 32.731099 -117.175715 130 24ft 4kts
20-Jul-20 15:28 32.731044 -117.175642 132 24ft 0kts
20-Jul-20 15:29 32.731033 -117.175627 132 24ft 1kts
20-Jul-20 15:30 32.732117 -117.183612 286 24ft 137kts
20-Jul-20 15:31 32.749766 -117.245425 308 2297ft 224kts
20-Jul-20 15:32 32.790635 -117.305261 309 4982ft 259kts
20-Jul-20 15:33 32.835013 -117.373254 306 7285ft 259kts
20-Jul-20 15:34 32.876017 -117.436881 306 9440ft 269kts
20-Jul-20 15:35 32.926386 -117.515201 307 11945ft 332kts
20-Jul-20 15:36 32.987601 -117.610609 308 15056ft 385kts
20-Jul-20 15:37 33.054807 -117.715594 307 19174ft 410kts
20-Jul-20 15:38 33.140256 -117.807234 318 22955ft 427kts
20-Jul-20 15:39 33.233857 -117.900858 319 25476ft 448kts
20-Jul-20 15:40 33.331318 -117.996042 319 28038ft 455kts
20-Jul-20 15:41 33.427688 -118.090426 319 30894ft 443kts
20-Jul-20 15:42 33.522132 -118.183219 319 33685ft 439kts
20-Jul-20 15:43 33.625986 -118.263635 334 34988ft 468kts
20-Jul-20 15:44 33.750584 -118.301090 17 34983ft 478kts
20-Jul-20 15:45 33.843554 -118.193746 55 34979ft 474kts
20-Jul-20 15:46 33.920155 -118.064471 55 34966ft 474kts
20-Jul-20 15:47 33.996716 -117.934908 55 34969ft 474kts
20-Jul-20 15:48 34.072918 -117.805480 55 34990ft 474kts
20-Jul-20 15:49 34.155795 -117.680448 51 34975ft 476kts
20-Jul-20 15:50 34.240276 -117.556743 51 34977ft 476kts
20-Jul-20 15:51 34.324340 -117.433225 51 34983ft 476kts
20-Jul-20 15:52 34.408198 -117.309583 51 34993ft 475kts
20-Jul-20 15:53 34.491995 -117.185591 51 34987ft 476kts
20-Jul-20 15:54 34.575784 -117.061179 51 34984ft 476kts
20-Jul-20 15:55 34.659726 -116.936106 51 34937ft 477kts
20-Jul-20 15:56 34.743412 -116.810965 51 34242ft 474kts
20-Jul-20 15:57 34.825777 -116.687203 51 33126ft 467kts
20-Jul-20 15:58 34.918905 -116.582043 39 30049ft 455kts
20-Jul-20 15:59 35.014476 -116.489314 39 27017ft 426kts
20-Jul-20 16:00 35.105344 -116.399583 45 24731ft 414kts
20-Jul-20 16:01 35.184465 -116.301021 46 22395ft 453kts
20-Jul-20 16:02 35.261451 -116.204443 46 20463ft 356kts
20-Jul-20 16:03 35.334279 -116.112783 46 18596ft 365kts
20-Jul-20 16:04 35.402351 -116.026891 46 16897ft 336kts
20-Jul-20 16:05 35.466242 -115.946075 46 15683ft 327kts
20-Jul-20 16:06 35.528634 -115.866945 46 14479ft 319kts
20-Jul-20 16:07 35.590007 -115.788930 46 13273ft 315kts
20-Jul-20 16:08 35.649779 -115.712770 47 13055ft 315kts
20-Jul-20 16:09 35.709976 -115.635889 47 12539ft 306kts
20-Jul-20 16:10 35.764552 -115.552218 61 11097ft 314kts
20-Jul-20 16:11 35.805657 -115.461945 61 9383ft 310kts
20-Jul-20 16:12 35.846732 -115.369445 60 7395ft 304kts
20-Jul-20 16:13 35.888775 -115.286950 28 7044ft 278kts
20-Jul-20 16:14 35.964941 -115.276517 1 6047ft 259kts
20-Jul-20 16:15 36.038213 -115.271311 4 5166ft 267kts
20-Jul-20 16:16 36.077366 -115.224213 102 3779ft 218kts
20-Jul-20 16:17 36.073691 -115.160800 90 2241ft 152kts
20-Jul-20 16:18 36.074359 -115.139459 71 2188ft 3kts
20-Jul-20 16:19 36.077044 -115.137898 356 2188ft 18kts
20-Jul-20 16:20 36.077530 -115.139494 268 2188ft 19kts
20-Jul-20 16:21 36.077930 -115.149406 275 2188ft 31kts
20-Jul-20 16:22 36.078002 -115.160106 269 2188ft 30kts
20-Jul-20 16:23 36.078031 -115.170411 270 2188ft 29kts
20-Jul-20 16:24 36.079897 -115.170147 26 2188ft 10kts
20-Jul-20 16:25 36.081078 -115.170464 270 2188ft 0kts
20-Jul-20 16:26 36.081078 -115.170464 270 2188ft 0kts
20-Jul-20 16:27 36.081078 -115.170464 270 2188ft 0kts
20-Jul-20 16:28 36.081078 -115.170464 270 2188ft 0kts
20-Jul-20 16:29 36.081078 -115.170464 270 2188ft 0kts
20-Jul-20 16:31 36.081078 -115.170464 270 2188ft 0kts
20-Jul-20 16:32 36.081078 -115.170464 270 2188ft 0kts
20-Jul-20 16:33 36.081078 -115.170464 270 2188ft 0kts

Navigation Log

Ident Type
Flight plan parsing failed, navigation log unavailable